Time;durP1;ratioP1;P1;durP2;ratioP2;P2;SDS_P1;SDS_P2;PMS_P1;PMS_P2;Temp;Humidity;BMP_temperature;BMP_pressure;BME280_temperature;BME280_humidity;BME280_pressure;Samples;Min_cycle;Max_cycle;Signal;HPM_P1;HPM_P2
2022/10/01 00:00:33;;;;;;;9.40;5.55;;;11.60;99.90;;;;;;5086210;28;20111;-39
2022/10/01 00:02:59;;;;;;;9.27;4.15;;;11.60;99.90;;;;;;5077192;28;20024;-38
2022/10/01 00:05:25;;;;;;;4.90;4.30;;;11.60;99.90;;;;;;5093320;28;20083;-43
2022/10/01 00:07:51;;;;;;;5.55;3.78;;;11.60;99.90;;;;;;5090635;28;20031;-39
2022/10/01 00:10:17;;;;;;;4.55;3.83;;;11.60;99.90;;;;;;5080779;28;20020;-38
2022/10/01 00:12:45;;;;;;;6.38;4.18;;;11.60;99.90;;;;;;5095614;28;20037;-38
2022/10/01 00:15:14;;;;;;;5.05;3.83;;;11.60;99.90;;;;;;5091387;28;20506;-38
2022/10/01 00:17:39;;;;;;;;;;;11.60;99.90;;;;;;5094787;28;20609;-39
2022/10/01 00:20:06;;;;;;;5.68;4.05;;;11.50;99.90;;;;;;5087304;28;19956;-40
2022/10/01 00:22:33;;;;;;;7.05;4.32;;;11.60;99.90;;;;;;5077712;28;20028;-35
2022/10/01 00:24:59;;;;;;;4.47;3.63;;;11.60;99.90;;;;;;5061885;28;20085;-39
2022/10/01 00:27:25;;;;;;;6.10;3.72;;;11.60;99.90;;;;;;5066266;28;20429;-39
2022/10/01 00:29:51;;;;;;;6.78;4.00;;;11.60;99.90;;;;;;5088407;28;20487;-38
2022/10/01 00:32:17;;;;;;;4.80;3.50;;;11.60;99.90;;;;;;5094006;28;20016;-42
2022/10/01 00:34:43;;;;;;;4.63;3.50;;;11.60;99.90;;;;;;5088756;28;20032;-38
2022/10/01 00:37:09;;;;;;;10.98;3.92;;;11.60;99.90;;;;;;5074899;28;20018;-38
2022/10/01 00:39:35;;;;;;;5.50;3.45;;;11.60;99.90;;;;;;5074829;28;20020;-38
2022/10/01 00:42:02;;;;;;;3.70;3.40;;;11.60;99.90;;;;;;5074427;28;20040;-37
2022/10/01 00:44:36;;;;;;;8.32;3.40;;;11.70;99.90;;;;;;5079430;28;20399;-37
2022/10/01 00:47:23;;;;;;;4.68;3.50;;;11.70;99.90;;;;;;5090799;28;20028;-39
2022/10/01 00:49:51;;;;;;;3.72;3.35;;;11.70;99.90;;;;;;5079774;28;20044;-38
2022/10/01 00:52:23;;;;;;;5.68;3.10;;;11.60;99.90;;;;;;5083189;28;20040;-43
2022/10/01 00:54:53;;;;;;;4.43;3.30;;;11.60;99.90;;;;;;5075940;28;20036;-53
2022/10/01 00:57:23;;;;;;;4.82;3.30;;;11.60;99.90;;;;;;5084635;28;20420;-39
2022/10/01 00:59:49;;;;;;;3.75;3.20;;;11.60;99.90;;;;;;5087865;28;20030;-37
2022/10/01 01:02:15;;;;;;;4.95;2.67;;;11.60;99.90;;;;;;5076837;28;20032;-37
2022/10/01 01:04:41;;;;;;;3.05;2.78;;;11.60;99.90;;;;;;5079023;28;20040;-38
2022/10/01 01:07:08;;;;;;;3.60;2.92;;;11.60;99.90;;;;;;5089191;28;20472;-38
2022/10/01 01:09:38;;;;;;;3.57;3.27;;;11.60;99.90;;;;;;5078749;28;20483;-39
2022/10/01 01:12:29;;;;;;;3.10;2.80;;;11.60;99.90;;;;;;5073919;28;20021;-39
2022/10/01 01:15:27;;;;;;;3.42;3.00;;;11.60;99.90;;;;;;5093605;28;20028;-39
2022/10/01 01:18:04;;;;;;;4.72;2.95;;;11.60;99.90;;;;;;5084925;28;20119;-39
2022/10/01 01:20:48;;;;;;;3.90;2.75;;;11.60;99.90;;;;;;5074143;28;20020;-37
2022/10/01 01:23:13;;;;;;;6.05;3.13;;;11.60;99.90;;;;;;5074058;28;20416;-42
2022/10/01 01:26:04;;;;;;;3.85;3.20;;;11.60;99.90;;;;;;5073184;28;20052;-36
2022/10/01 01:28:33;;;;;;;5.18;2.92;;;11.60;99.90;;;;;;5083467;28;20025;-39
2022/10/01 01:31:09;;;;;;;4.15;2.90;;;11.60;99.90;;;;;;5073603;28;20031;-38
2022/10/01 01:33:37;;;;;;;5.65;3.10;;;11.60;99.90;;;;;;5075644;28;20025;-38
2022/10/01 01:36:15;;;;;;;3.53;3.13;;;11.60;99.90;;;;;;5093072;28;20091;-51
2022/10/01 01:38:54;;;;;;;3.13;2.83;;;11.60;99.90;;;;;;5074804;28;20134;-38
2022/10/01 01:41:23;;;;;;;3.33;2.60;;;11.60;99.90;;;;;;5093354;28;20077;-39
2022/10/01 01:43:53;;;;;;;2.95;2.50;;;11.60;99.90;;;;;;5085171;28;20495;-43
2022/10/01 01:46:19;;;;;;;3.53;2.88;;;11.60;99.90;;;;;;5073292;28;20025;-38
2022/10/01 01:48:46;;;;;;;3.05;2.35;;;11.70;99.90;;;;;;5073206;28;20494;-38
2022/10/01 01:51:30;;;;;;;2.97;2.50;;;11.70;99.90;;;;;;5073172;28;20020;-38
2022/10/01 01:53:55;;;;;;;3.30;2.58;;;11.70;99.90;;;;;;5081496;28;20373;-38
2022/10/01 01:56:21;;;;;;;3.92;2.50;;;11.70;99.90;;;;;;5087899;28;20086;-39
2022/10/01 01:58:47;;;;;;;2.60;2.40;;;11.70;99.90;;;;;;5092872;28;20036;-38
2022/10/01 02:01:39;;;;;;;2.47;2.28;;;11.70;99.90;;;;;;5093395;28;20384;-44
2022/10/01 02:04:09;;;;;;;2.50;2.00;;;11.70;99.90;;;;;;5080212;28;20021;-38
2022/10/01 02:07:25;;;;;;;2.30;2.15;;;11.80;99.90;;;;;;5089308;28;20038;-37
2022/10/01 02:10:16;;;;;;;2.20;2.00;;;11.80;99.90;;;;;;5053598;28;20060;-36
2022/10/01 02:13:14;;;;;;;2.55;2.35;;;11.80;99.90;;;;;;5077986;28;20032;-38
2022/10/01 02:16:20;;;;;;;5.15;2.30;;;11.80;99.90;;;;;;5088388;28;20024;-36
2022/10/01 02:18:55;;;;;;;3.70;1.85;;;11.80;99.90;;;;;;5082134;28;20484;-38
2022/10/01 02:21:50;;;;;;;1.80;1.70;;;11.80;99.90;;;;;;5075747;28;22360;-39
2022/10/01 02:24:31;;;;;;;2.33;2.13;;;11.80;99.90;;;;;;5093046;28;20388;-38
2022/10/01 02:27:02;;;;;;;4.57;2.17;;;11.80;99.90;;;;;;5091914;28;20488;-42
2022/10/01 02:29:28;;;;;;;2.80;2.20;;;11.80;99.90;;;;;;5067340;28;20433;-40
2022/10/01 02:31:56;;;;;;;1.92;1.80;;;11.80;99.90;;;;;;5091041;28;20047;-38
2022/10/01 02:34:26;;;;;;;1.70;1.60;;;11.80;99.90;;;;;;5092717;28;20507;-40
2022/10/01 02:36:54;;;;;;;7.28;2.30;;;11.90;99.90;;;;;;5077637;28;20518;-39
2022/10/01 02:39:23;;;;;;;2.00;1.80;;;11.80;99.90;;;;;;5072673;28;20091;-38
2022/10/01 02:41:52;;;;;;;4.43;1.80;;;11.90;99.90;;;;;;5072419;28;20029;-39
2022/10/01 02:44:22;;;;;;;3.15;2.20;;;11.90;99.90;;;;;;5076101;28;20472;-39
2022/10/01 02:47:18;;;;;;;1.83;1.73;;;11.80;99.90;;;;;;5089472;28;20028;-39
2022/10/01 02:49:46;;;;;;;1.90;1.80;;;11.90;99.90;;;;;;5071351;28;20041;-38
2022/10/01 02:52:41;;;;;;;1.85;1.75;;;11.90;99.90;;;;;;5093669;28;20525;-38
2022/10/01 02:55:13;;;;;;;2.45;1.80;;;11.90;99.90;;;;;;5085993;28;20099;-38
2022/10/01 02:57:40;;;;;;;1.58;1.48;;;11.90;99.90;;;;;;5076571;28;20422;-37
2022/10/01 03:00:14;;;;;;;2.20;2.00;;;11.90;99.90;;;;;;5076188;28;20039;-36
2022/10/01 03:02:39;;;;;;;2.28;2.03;;;11.90;99.90;;;;;;5076471;28;20451;-39
2022/10/01 03:05:06;;;;;;;2.00;1.90;;;11.90;99.90;;;;;;5086364;28;20099;-37
2022/10/01 03:07:36;;;;;;;1.98;1.83;;;12.00;99.90;;;;;;5096792;28;20021;-38
2022/10/01 03:10:07;;;;;;;1.80;1.70;;;12.00;99.90;;;;;;5091671;28;20070;-43
2022/10/01 03:12:33;;;;;;;2.15;1.95;;;12.00;99.90;;;;;;5096592;28;20020;-37
2022/10/01 03:14:59;;;;;;;1.80;1.70;;;12.00;99.90;;;;;;5087726;28;20519;-38
2022/10/01 03:17:25;;;;;;;5.03;2.40;;;12.00;99.90;;;;;;5075233;28;20119;-38
2022/10/01 03:19:51;;;;;;;2.28;2.13;;;12.00;99.90;;;;;;5078795;28;20043;-37
2022/10/01 03:22:21;;;;;;;2.55;2.33;;;12.10;99.90;;;;;;5088503;28;20032;-38
2022/10/01 03:24:50;;;;;;;2.53;2.33;;;12.20;99.90;;;;;;5083359;28;20024;-38
2022/10/01 03:27:16;;;;;;;5.93;2.53;;;12.20;99.90;;;;;;5079378;28;20376;-37
2022/10/01 03:29:42;;;;;;;2.85;2.50;;;12.20;99.90;;;;;;5085716;28;20104;-37
2022/10/01 03:32:08;;;;;;;3.60;2.63;;;12.20;99.90;;;;;;5089018;28;20511;-39
2022/10/01 03:34:33;;;;;;;2.95;2.70;;;12.30;99.90;;;;;;5094980;28;20107;-46
2022/10/01 03:36:59;;;;;;;3.00;2.80;;;12.30;99.90;;;;;;5083457;28;20069;-38
2022/10/01 03:39:24;;;;;;;3.70;3.00;;;12.30;99.90;;;;;;5084389;28;20028;-38
2022/10/01 03:41:50;;;;;;;3.50;3.13;;;12.30;99.90;;;;;;5085668;28;20081;-38
2022/10/01 03:44:16;;;;;;;7.20;3.00;;;12.30;99.90;;;;;;5088354;28;20024;-37
2022/10/01 03:46:42;;;;;;;3.30;3.00;;;12.40;99.90;;;;;;5094367;28;20111;-37
2022/10/01 03:49:09;;;;;;;5.05;3.20;;;12.40;99.90;;;;;;5092347;28;20496;-38
2022/10/01 03:51:36;;;;;;;3.33;3.13;;;12.40;99.90;;;;;;5072596;28;20020;-40
2022/10/01 03:54:02;;;;;;;4.45;3.50;;;12.50;99.90;;;;;;5073845;28;20426;-36
2022/10/01 03:56:28;;;;;;;4.68;3.30;;;12.50;99.90;;;;;;5087519;28;20024;-37
2022/10/01 03:58:53;;;;;;;4.07;3.78;;;12.50;99.90;;;;;;5093321;28;20035;-36
2022/10/01 04:01:20;;;;;;;6.10;4.05;;;12.50;99.90;;;;;;5087571;28;20035;-37
2022/10/01 04:03:46;;;;;;;4.20;3.80;;;12.60;99.90;;;;;;5085287;28;20476;-38
2022/10/01 04:06:12;;;;;;;3.58;3.03;;;12.60;99.90;;;;;;5090115;28;20034;-37
2022/10/01 04:08:38;;;;;;;4.03;3.63;;;12.70;99.90;;;;;;5093352;28;20024;-37
2022/10/01 04:11:05;;;;;;;6.25;3.58;;;12.70;99.90;;;;;;5094461;28;20073;-38
2022/10/01 04:13:31;;;;;;;3.50;3.27;;;12.70;99.90;;;;;;5091091;28;20039;-35
2022/10/01 04:15:57;;;;;;;4.10;3.42;;;12.80;99.90;;;;;;5092420;28;20032;-37
2022/10/01 04:18:22;;;;;;;4.25;3.78;;;12.80;99.90;;;;;;5094417;28;20498;-39
2022/10/01 04:20:48;;;;;;;3.72;3.42;;;12.80;99.90;;;;;;5091089;28;20164;-34
2022/10/01 04:23:14;;;;;;;4.15;3.78;;;12.70;99.90;;;;;;5087545;28;20032;-36
2022/10/01 04:25:40;;;;;;;7.80;3.58;;;12.80;99.90;;;;;;5080835;28;20400;-37
2022/10/01 04:28:08;;;;;;;3.47;3.20;;;12.80;99.90;;;;;;5081542;28;20476;-52
2022/10/01 04:30:37;;;;;;;3.58;3.28;;;12.80;99.90;;;;;;5092263;28;20111;-47
2022/10/01 04:33:04;;;;;;;3.53;3.22;;;12.90;99.90;;;;;;5083957;28;20021;-37
2022/10/01 04:35:30;;;;;;;4.23;3.60;;;12.90;99.90;;;;;;5092481;28;20486;-38
2022/10/01 04:38:02;;;;;;;3.95;2.70;;;13.00;99.90;;;;;;5093269;28;20063;-37
2022/10/01 04:40:34;;;;;;;4.63;3.22;;;13.00;99.90;;;;;;5089822;28;20034;-37
2022/10/01 04:43:00;;;;;;;3.65;3.38;;;13.00;99.90;;;;;;5083144;28;20038;-36
2022/10/01 04:45:26;;;;;;;4.57;3.33;;;13.00;99.90;;;;;;5092169;28;20023;-37
2022/10/01 04:47:54;;;;;;;4.85;3.67;;;13.10;99.90;;;;;;5093603;28;20032;-38
2022/10/01 04:50:21;;;;;;;5.93;3.65;;;13.10;99.90;;;;;;5064616;28;20028;-38
2022/10/01 04:52:47;;;;;;;3.80;3.50;;;13.20;99.90;;;;;;5086744;28;20026;-39
2022/10/01 04:55:14;;;;;;;4.80;3.22;;;13.20;99.90;;;;;;5089252;28;20281;-37
2022/10/01 04:57:40;;;;;;;3.95;3.65;;;13.20;99.90;;;;;;5090950;28;20024;-38
2022/10/01 05:00:08;;;;;;;4.00;3.60;;;13.30;99.90;;;;;;5092825;28;20020;-38
2022/10/01 05:02:34;;;;;;;7.10;3.72;;;13.20;99.90;;;;;;5085193;28;20107;-38
2022/10/01 05:05:02;;;;;;;3.67;3.22;;;13.20;99.90;;;;;;5082613;28;20058;-37
2022/10/01 05:07:32;;;;;;;5.75;3.20;;;13.30;99.90;;;;;;5081676;28;20062;-57
2022/10/01 05:09:59;;;;;;;3.75;3.42;;;13.30;99.90;;;;;;5093531;28;20492;-36
2022/10/01 05:12:25;;;;;;;4.35;4.00;;;13.30;99.90;;;;;;5090632;28;20430;-37
2022/10/01 05:14:52;;;;;;;5.57;3.25;;;13.30;99.90;;;;;;5083682;28;20025;-38
2022/10/01 05:17:18;;;;;;;5.97;3.42;;;13.30;99.90;;;;;;5082734;28;20065;-37
2022/10/01 05:19:47;;;;;;;4.05;3.40;;;13.30;99.90;;;;;;5088307;28;20024;-37
2022/10/01 05:22:13;;;;;;;3.30;3.10;;;13.30;99.90;;;;;;5093122;28;20145;-29
2022/10/01 05:24:39;;;;;;;5.93;3.65;;;13.30;99.90;;;;;;5090988;28;20115;-30
2022/10/01 05:27:08;;;;;;;4.03;3.50;;;13.30;99.90;;;;;;5088564;28;20114;-33
2022/10/01 05:29:34;;;;;;;6.78;2.90;;;13.30;99.90;;;;;;5091044;28;20357;-33
2022/10/01 05:31:59;;;;;;;3.45;3.15;;;13.30;99.90;;;;;;5091550;28;20020;-34
2022/10/01 05:34:25;;;;;;;7.80;3.05;;;13.30;99.90;;;;;;5079709;28;20491;-49
2022/10/01 05:36:51;;;;;;;2.92;2.72;;;13.30;99.90;;;;;;5089974;28;20020;-33
2022/10/01 05:39:16;;;;;;;7.43;2.80;;;13.30;99.90;;;;;;5091687;28;20028;-30
2022/10/01 05:41:42;;;;;;;6.45;3.00;;;13.30;99.90;;;;;;5092347;28;20494;-30
2022/10/01 05:44:07;;;;;;;4.13;2.80;;;13.30;99.90;;;;;;5091079;28;20027;-30
2022/10/01 05:46:33;;;;;;;3.67;3.38;;;13.30;99.90;;;;;;5063588;28;20036;-31
2022/10/01 05:48:58;;;;;;;3.40;3.05;;;13.30;99.90;;;;;;5087514;28;20561;-32
2022/10/01 05:51:24;;;;;;;6.63;3.13;;;13.30;99.90;;;;;;5078443;28;20024;-31
2022/10/01 05:53:53;;;;;;;4.82;3.05;;;13.30;99.90;;;;;;5089384;28;20035;-31
2022/10/01 05:56:18;;;;;;;3.08;2.72;;;13.30;99.90;;;;;;5090844;28;20097;-29
2022/10/01 05:58:45;;;;;;;4.63;3.45;;;13.30;99.90;;;;;;5091316;28;20052;-31
2022/10/01 06:01:11;;;;;;;6.38;2.78;;;13.30;99.90;;;;;;5090722;28;20048;-30
2022/10/01 06:03:37;;;;;;;3.63;2.83;;;13.30;99.90;;;;;;5088881;28;20034;-29
2022/10/01 06:06:04;;;;;;;5.97;3.20;;;13.30;99.90;;;;;;5090595;28;20523;-31
2022/10/01 06:08:32;;;;;;;4.03;3.70;;;13.30;99.90;;;;;;5091260;28;20035;-36
2022/10/01 06:10:59;;;;;;;3.20;2.90;;;13.30;99.90;;;;;;5086557;28;20468;-33
2022/10/01 06:13:25;;;;;;;3.28;2.97;;;13.30;99.90;;;;;;5080763;28;20065;-32
2022/10/01 06:15:52;;;;;;;3.35;3.05;;;13.40;99.90;;;;;;5070386;28;20406;-34
2022/10/01 06:18:18;;;;;;;3.45;2.97;;;13.30;99.90;;;;;;5090118;28;20031;-31
2022/10/01 06:20:44;;;;;;;3.53;3.00;;;13.40;99.90;;;;;;5091047;28;20036;-31
2022/10/01 06:23:11;;;;;;;2.80;2.60;;;13.40;99.90;;;;;;5086534;28;20024;-30
2022/10/01 06:25:38;;;;;;;3.40;2.72;;;13.40;99.90;;;;;;5089829;28;20040;-32
2022/10/01 06:28:05;;;;;;;3.97;2.97;;;13.40;99.90;;;;;;5087985;28;20028;-31
2022/10/01 06:30:32;;;;;;;3.73;3.00;;;13.40;99.90;;;;;;5089285;28;21352;-35
2022/10/01 06:33:07;;;;;;;2.70;2.50;;;13.40;99.90;;;;;;5090571;28;20035;-31
2022/10/01 06:35:34;;;;;;;3.35;2.85;;;13.50;99.90;;;;;;5078174;28;20024;-30
2022/10/01 06:38:01;;;;;;;5.60;3.10;;;13.50;99.90;;;;;;5079683;28;20024;-29
2022/10/01 06:40:30;;;;;;;3.25;2.75;;;13.50;99.90;;;;;;5086345;28;20491;-31
2022/10/01 06:42:59;;;;;;;6.65;3.10;;;13.50;99.90;;;;;;5086819;28;20024;-38
2022/10/01 06:45:29;;;;;;;3.20;2.50;;;13.60;99.90;;;;;;5078190;28;20541;-31
2022/10/01 06:47:55;;;;;;;3.17;2.88;;;13.60;99.90;;;;;;5078592;28;20028;-30
2022/10/01 06:50:22;;;;;;;4.85;3.17;;;13.80;99.90;;;;;;5062821;28;20036;-34
2022/10/01 06:52:47;;;;;;;4.10;2.88;;;13.80;99.90;;;;;;5090386;28;20430;-31
2022/10/01 06:55:17;;;;;;;6.55;2.78;;;14.00;99.90;;;;;;5085821;28;20020;-30
2022/10/01 06:57:43;;;;;;;7.22;3.40;;;14.20;99.90;;;;;;5079343;28;20508;-31
2022/10/01 07:00:09;;;;;;;5.65;3.03;;;14.30;99.90;;;;;;5081467;28;20102;-33
2022/10/01 07:02:35;;;;;;;3.85;2.72;;;14.30;99.90;;;;;;5056459;28;20044;-30
2022/10/01 07:05:20;;;;;;;4.50;2.67;;;14.40;99.90;;;;;;5078363;28;20395;-30
2022/10/01 07:07:47;;;;;;;5.88;3.05;;;14.40;99.90;;;;;;5078941;28;20480;-32
2022/10/01 07:10:14;;;;;;;4.00;2.47;;;14.40;99.90;;;;;;5077868;28;20099;-32
2022/10/01 07:12:40;;;;;;;2.40;1.77;;;14.40;99.90;;;;;;5083021;28;20084;-33
2022/10/01 07:15:07;;;;;;;3.85;2.03;;;14.40;99.90;;;;;;5080135;28;20016;-34
2022/10/01 07:17:41;;;;;;;7.43;2.03;;;14.30;99.90;;;;;;5079694;28;20579;-37
2022/10/01 07:20:07;;;;;;;8.43;2.38;;;14.30;99.90;;;;;;5084688;28;20278;-34
2022/10/01 07:22:33;;;;;;;3.45;1.92;;;14.30;99.90;;;;;;5079389;28;20476;-31
2022/10/01 07:24:58;;;;;;;2.60;2.00;;;14.30;99.90;;;;;;5082196;28;20040;-30
2022/10/01 07:27:24;;;;;;;4.25;1.60;;;14.40;99.90;;;;;;5076890;28;20032;-42
2022/10/01 07:29:49;;;;;;;12.68;1.60;;;14.50;99.90;;;;;;5078137;28;20270;-31
2022/10/01 07:32:15;;;;;;;3.67;1.65;;;14.50;99.90;;;;;;5078208;28;20024;-37
2022/10/01 07:34:41;;;;;;;6.35;2.05;;;14.50;99.90;;;;;;5078448;28;20016;-33
2022/10/01 07:37:08;;;;;;;8.60;1.90;;;14.50;99.90;;;;;;5082055;28;20016;-33
2022/10/01 07:39:37;;;;;;;9.00;1.42;;;14.50;99.90;;;;;;5091904;28;20038;-32
2022/10/01 07:42:03;;;;;;;3.95;1.85;;;14.50;99.90;;;;;;5081777;28;20032;-37
2022/10/01 07:44:29;;;;;;;8.95;2.17;;;14.60;99.90;;;;;;5091275;28;20046;-39
2022/10/01 07:46:55;;;;;;;6.05;2.40;;;14.70;99.90;;;;;;5087319;28;20582;-36
2022/10/01 07:49:23;;;;;;;9.45;2.10;;;14.90;99.90;;;;;;5095334;28;20528;-32
2022/10/01 07:51:50;;;;;;;2.65;1.80;;;15.10;99.90;;;;;;5089409;28;20452;-37
2022/10/01 07:54:15;;;;;;;12.75;2.60;;;15.20;99.90;;;;;;5071090;28;20476;-32
2022/10/01 07:56:41;;;;;;;2.60;1.80;;;15.30;99.90;;;;;;5058471;28;20020;-34
2022/10/01 07:59:08;;;;;;;3.05;1.65;;;15.20;99.90;;;;;;5085122;28;20141;-32
2022/10/01 08:01:35;;;;;;;4.85;1.70;;;15.20;99.90;;;;;;5094246;28;20040;-32
2022/10/01 08:05:16;;;;;;;5.20;1.50;;;15.20;99.90;;;;;;5094199;28;20547;-32
2022/10/01 08:06:47;;;;;;;10.52;1.77;;;15.20;99.90;;;;;;5084644;28;20032;-33
2022/10/01 08:09:14;;;;;;;6.20;1.37;;;15.20;99.90;;;;;;5076974;28;20107;-33
2022/10/01 08:11:40;;;;;;;6.95;1.80;;;15.10;99.90;;;;;;5081713;28;20073;-33
2022/10/01 08:14:05;;;;;;;6.10;1.23;;;15.10;99.90;;;;;;5079958;28;20020;-33
2022/10/01 08:16:33;;;;;;;8.50;1.45;;;15.00;99.90;;;;;;5080487;28;20028;-34
2022/10/01 08:18:59;;;;;;;2.60;1.52;;;15.00;99.90;;;;;;5092416;28;20032;-35
2022/10/01 08:21:28;;;;;;;4.78;1.60;;;15.00;99.90;;;;;;5092636;28;20042;-41
2022/10/01 08:23:53;;;;;;;3.13;1.25;;;15.00;99.90;;;;;;5073657;28;20061;-44
2022/10/01 08:26:19;;;;;;;2.90;1.92;;;15.00;99.90;;;;;;5082931;28;20043;-49
2022/10/01 08:28:44;;;;;;;4.43;1.40;;;15.00;99.90;;;;;;5090024;28;20089;-42
2022/10/01 08:31:10;;;;;;;6.80;2.28;;;15.10;99.90;;;;;;5090142;28;20409;-41
2022/10/01 08:33:37;;;;;;;8.77;1.98;;;15.10;99.90;;;;;;5091621;28;20052;-38
2022/10/01 08:36:06;;;;;;;8.68;1.77;;;15.10;99.90;;;;;;5092330;28;20024;-40
2022/10/01 08:38:32;;;;;;;7.30;1.58;;;15.20;99.90;;;;;;5066117;28;20488;-40
2022/10/01 08:41:03;;;;;;;5.65;1.85;;;15.10;99.90;;;;;;5091974;28;20031;-40
2022/10/01 08:43:49;;;;;;;12.07;1.83;;;15.10;99.90;;;;;;5067162;28;20024;-41
2022/10/01 08:46:23;;;;;;;10.38;1.50;;;15.20;99.90;;;;;;5064514;28;20028;-40
2022/10/01 08:49:25;;;;;;;15.25;2.15;;;15.40;99.90;;;;;;5084796;28;20028;-39
2022/10/01 08:52:09;;;;;;;8.15;2.00;;;15.50;99.90;;;;;;5065474;28;20028;-43
2022/10/01 08:54:45;;;;;;;5.90;1.60;;;15.70;99.90;;;;;;5093632;28;20559;-48
2022/10/01 08:57:19;;;;;;;4.93;1.38;;;15.80;99.90;;;;;;5083884;28;20120;-40
2022/10/01 08:59:49;;;;;;;9.68;1.63;;;15.80;99.90;;;;;;5090306;28;20069;-40
2022/10/01 09:02:42;;;;;;;5.45;1.50;;;16.00;99.90;;;;;;5085193;28;20479;-39
2022/10/01 09:05:41;;;;;;;4.03;1.60;;;16.10;99.90;;;;;;5091940;28;20040;-39
2022/10/01 09:08:42;;;;;;;13.38;1.83;;;16.30;99.90;;;;;;5074764;28;20033;-39
2022/10/01 09:11:23;;;;;;;7.93;1.92;;;16.40;99.90;;;;;;5077733;28;20087;-40
2022/10/01 09:13:56;;;;;;;4.32;1.08;;;16.50;99.90;;;;;;5086572;28;20024;-41
2022/10/01 09:16:50;;;;;;;5.70;1.52;;;16.40;99.90;;;;;;5092974;28;20094;-41
2022/10/01 09:19:30;;;;;;;12.98;1.33;;;16.20;99.90;;;;;;5092002;28;20373;-40
2022/10/01 09:22:06;;;;;;;11.88;1.75;;;15.90;99.90;;;;;;5085086;28;20460;-40
2022/10/01 09:24:52;;;;;;;20.02;1.77;;;15.80;99.90;;;;;;5076731;28;20761;-41
2022/10/01 09:27:23;;;;;;;11.27;1.58;;;15.70;99.90;;;;;;5068147;28;20062;-42
2022/10/01 09:29:55;;;;;;;9.27;1.98;;;15.70;99.90;;;;;;5086563;28;20028;-39
2022/10/01 09:32:57;;;;;;;6.95;1.25;;;15.80;99.90;;;;;;5085301;28;20082;-37
2022/10/01 09:35:55;;;;;;;14.32;1.55;;;15.90;99.90;;;;;;5077826;28;20476;-42
2022/10/01 09:38:27;;;;;;;13.13;1.20;;;16.10;99.90;;;;;;5083711;28;20051;-42
2022/10/01 09:40:57;;;;;;;8.93;1.42;;;16.30;99.90;;;;;;5068379;28;20036;-41
2022/10/01 09:43:28;;;;;;;19.98;1.83;;;16.40;99.90;;;;;;5079197;28;20028;-43
2022/10/01 09:45:54;;;;;;;11.43;1.98;;;16.70;99.90;;;;;;5090764;28;20028;-41
2022/10/01 09:48:37;;;;;;;14.35;2.35;;;16.90;99.90;;;;;;5087870;28;20082;-41
2022/10/01 09:51:13;;;;;;;9.07;1.80;;;16.80;99.90;;;;;;5081696;28;20431;-39
2022/10/01 09:53:46;;;;;;;4.68;1.00;;;16.50;99.90;;;;;;5073202;28;20043;-47
2022/10/01 09:56:25;;;;;;;7.30;1.40;;;16.30;99.90;;;;;;5076441;28;20471;-45
2022/10/01 09:58:58;;;;;;;10.45;1.30;;;16.00;99.90;;;;;;5092554;28;20036;-42
2022/10/01 10:01:44;;;;;;;9.15;1.38;;;16.00;99.90;;;;;;5091465;28;20085;-42
2022/10/01 10:04:11;;;;;;;11.90;1.30;;;16.20;99.90;;;;;;5052676;28;20036;-42
2022/10/01 10:06:37;;;;;;;9.40;1.38;;;16.50;99.90;;;;;;5087134;28;20024;-45
2022/10/01 10:09:03;;;;;;;8.20;1.20;;;16.80;99.90;;;;;;5072963;28;20035;-44
2022/10/01 10:11:30;;;;;;;17.55;2.00;;;16.90;99.90;;;;;;5073018;28;20107;-52
2022/10/01 10:13:59;;;;;;;17.35;1.83;;;16.90;99.90;;;;;;5072896;28;20020;-40
2022/10/01 10:16:36;;;;;;;7.18;1.23;;;16.60;99.90;;;;;;5055702;28;20020;-42
2022/10/01 10:19:16;;;;;;;10.50;2.20;;;16.50;99.90;;;;;;5073159;28;20387;-42
2022/10/01 10:21:53;;;;;;;15.82;1.75;;;16.40;99.90;;;;;;5074545;28;20033;-40
2022/10/01 10:24:39;;;;;;;2.97;1.52;;;16.50;99.90;;;;;;5093163;28;20028;-47
2022/10/01 10:27:29;;;;;;;6.07;1.38;;;16.70;99.90;;;;;;5092613;28;20420;-42
2022/10/01 10:30:12;;;;;;;14.18;1.08;;;16.80;99.90;;;;;;5092901;28;20103;-43
2022/10/01 10:32:38;;;;;;;9.65;1.65;;;16.90;99.90;;;;;;5092502;28;20444;-42
2022/10/01 10:35:10;;;;;;;8.27;1.45;;;17.10;99.90;;;;;;5093055;28;20024;-45
2022/10/01 10:37:43;;;;;;;7.90;1.92;;;17.20;99.90;;;;;;5093020;28;20539;-42
2022/10/01 10:40:18;;;;;;;8.20;1.05;;;17.20;99.90;;;;;;5092756;28;20547;-44
2022/10/01 10:42:53;;;;;;;6.90;1.48;;;17.30;99.90;;;;;;5088187;28;20532;-38
2022/10/01 10:45:30;;;;;;;6.15;1.60;;;17.40;99.90;;;;;;5080212;28;20465;-47
2022/10/01 10:48:00;;;;;;;6.60;1.27;;;17.30;99.90;;;;;;5077179;28;20562;-43
2022/10/01 10:50:32;;;;;;;6.95;1.25;;;17.20;99.90;;;;;;5085712;28;20074;-41
2022/10/01 10:52:58;;;;;;;7.93;1.45;;;17.00;99.90;;;;;;5069003;28;20024;-49
2022/10/01 10:55:24;;;;;;;10.73;1.30;;;17.10;99.90;;;;;;5081042;28;20066;-45
2022/10/01 10:57:50;;;;;;;9.13;1.30;;;17.20;99.90;;;;;;5073060;28;20024;-46
2022/10/01 11:00:22;;;;;;;9.13;1.83;;;17.00;99.90;;;;;;5077053;28;20024;-43
2022/10/01 11:02:57;;;;;;;8.25;1.95;;;17.10;99.90;;;;;;5081498;28;20358;-40
2022/10/01 11:05:30;;;;;;;12.30;1.23;;;17.20;99.90;;;;;;5077162;28;20031;-46
2022/10/01 11:08:10;;;;;;;8.30;1.48;;;17.20;99.90;;;;;;5086952;28;20032;-48
2022/10/01 11:11:02;;;;;;;7.15;1.52;;;17.40;99.90;;;;;;5076731;28;20060;-42
2022/10/01 11:13:49;;;;;;;9.02;1.15;;;17.60;99.90;;;;;;5082572;28;20483;-44
2022/10/01 11:16:33;;;;;;;7.87;1.93;;;17.80;99.90;;;;;;5080850;28;20035;-45
2022/10/01 11:19:27;;;;;;;10.23;1.90;;;18.00;99.90;;;;;;5075746;28;20460;-46
2022/10/01 11:21:58;;;;;;;10.07;1.77;;;18.00;99.90;;;;;;5074248;28;20503;-45
2022/10/01 11:24:50;;;;;;;6.72;1.60;;;18.00;99.90;;;;;;5095535;28;20468;-50
2022/10/01 11:27:44;;;;;;;7.75;1.33;;;18.00;99.90;;;;;;5075934;28;20045;-44
2022/10/01 11:30:38;;;;;;;12.38;1.30;;;17.80;99.90;;;;;;5087877;28;20036;-43
2022/10/01 11:33:24;;;;;;;11.75;1.45;;;17.40;99.90;;;;;;5078998;28;20040;-44
2022/10/01 11:36:14;;;;;;;7.70;2.03;;;17.10;99.90;;;;;;5094662;28;20487;-44
2022/10/01 11:38:53;;;;;;;5.85;1.40;;;16.90;99.90;;;;;;5089129;28;20032;-48
2022/10/01 11:41:37;;;;;;;13.18;2.03;;;16.90;99.90;;;;;;5092580;28;20596;-47
2022/10/01 11:44:13;;;;;;;3.90;1.35;;;17.20;99.90;;;;;;5058413;28;20025;-46
2022/10/01 11:46:52;;;;;;;6.65;2.13;;;17.60;99.90;;;;;;5066110;28;20036;-47
2022/10/01 11:49:27;;;;;;;4.63;1.38;;;17.70;99.90;;;;;;5073499;28;20040;-44
2022/10/01 11:52:16;;;;;;;7.25;1.40;;;17.50;99.90;;;;;;5081029;28;20031;-44
2022/10/01 11:58:49;;;;;;;12.98;1.10;;;17.20;99.90;;;;;;5075703;28;20740;-42
2022/10/01 12:00:36;;;;;;;7.85;1.13;;;17.20;99.90;;;;;;5071110;28;20091;-49
2022/10/01 12:03:09;;;;;;;4.28;1.17;;;17.40;99.90;;;;;;5054711;28;20565;-53
2022/10/01 12:05:37;;;;;;;10.48;1.58;;;17.40;99.90;;;;;;5089851;28;20487;-46
2022/10/01 12:08:23;;;;;;;7.07;2.40;;;17.30;99.90;;;;;;5091503;28;20491;-45
2022/10/01 12:11:16;;;;;;;5.75;1.13;;;17.00;99.90;;;;;;5079839;28;20024;-48
2022/10/01 12:13:54;;;;;;;8.55;0.80;;;16.90;99.90;;;;;;5058258;28;20024;-42
2022/10/01 12:16:43;;;;;;;8.45;1.50;;;16.70;99.90;;;;;;5083903;28;20025;-50
2022/10/01 12:19:20;;;;;;;12.10;1.35;;;16.60;99.90;;;;;;5090818;28;20476;-46
2022/10/01 12:21:55;;;;;;;3.90;1.52;;;16.90;99.90;;;;;;5088303;28;20034;-47
2022/10/01 12:24:28;;;;;;;10.02;1.42;;;17.20;99.90;;;;;;5084293;28;20024;-47
2022/10/01 12:27:32;;;;;;;6.47;1.23;;;17.50;99.90;;;;;;5078883;28;20045;-46
2022/10/01 12:30:14;;;;;;;15.35;1.65;;;17.80;99.90;;;;;;5086458;28;20043;-51
2022/10/01 12:32:45;;;;;;;11.13;1.45;;;18.10;99.90;;;;;;5089221;28;20038;-43
2022/10/01 12:35:11;;;;;;;4.00;1.42;;;18.00;99.90;;;;;;5092240;28;20093;-46
2022/10/01 12:38:05;;;;;;;4.43;1.23;;;18.00;99.90;;;;;;5092448;28;21842;-44
2022/10/01 12:40:44;;;;;;;6.40;1.35;;;17.80;99.90;;;;;;5091676;28;20066;-44
2022/10/01 12:43:35;;;;;;;13.13;2.08;;;17.60;99.90;;;;;;5094531;28;20543;-45
2022/10/01 12:46:29;;;;;;;10.80;1.50;;;17.60;99.90;;;;;;5073033;28;20483;-43
2022/10/01 12:49:46;;;;;;;7.63;1.80;;;17.50;99.90;;;;;;5077344;28;20081;-41
2022/10/01 12:52:41;;;;;;;7.13;1.70;;;17.60;99.90;;;;;;5011117;28;20522;-54
2022/10/01 12:55:38;;;;;;;12.35;1.73;;;17.90;99.90;;;;;;5088048;28;20539;-40
2022/10/01 12:58:24;;;;;;;8.88;1.55;;;18.10;99.90;;;;;;5074441;28;20039;-46
2022/10/01 13:01:13;;;;;;;8.60;2.43;;;18.30;99.90;;;;;;5075087;28;20039;-46
2022/10/01 13:04:08;;;;;;;6.13;1.10;;;18.30;99.90;;;;;;5078719;28;20278;-43
2022/10/01 13:06:47;;;;;;;13.50;1.35;;;18.20;99.90;;;;;;5083096;28;20032;-49
2022/10/01 13:09:19;;;;;;;11.27;1.35;;;18.10;99.90;;;;;;5089055;28;20027;-48
2022/10/01 13:12:10;;;;;;;9.68;1.67;;;18.30;99.90;;;;;;5079645;28;20035;-42
2022/10/01 13:14:37;;;;;;;10.98;2.22;;;18.50;99.90;;;;;;5083917;28;20373;-48
2022/10/01 13:17:51;;;;;;;11.48;1.40;;;18.60;99.90;;;;;;5056755;28;20503;-50